Georges Clemenceau 2 — FG8093 — position and weather

sailwx.info

Track history (hours):
 
Tides and Currents Weather Stations Pressure Air Temp Water Temp Dewpoint Dewpoint Depression Visibility Wind Speed Wind Dir Waves Ship Positions

Georges Clemenceau 2

Last reported at 2017-Sep-12 08:36 UTC. Time now 2017-Sep-23 05:56 UTC.
Position N 47°04' W 002°17'.
Warning: this ship's position is 10 days out of date.

Length 18 m.

Type: Pilot. MMSI: 227003710.

Date/timePositionNaut miles runAvg speedWind from/ knotsBaromVisibWave heightAir tempDewpointWater temp
2017-Sep-12 08:36N 47°04' W 002°17'217.1
2017-Sep-12 08:30N 47°06' W 002°17'2 3.1
2017-Sep-12 08:00N 47°06' W 002°14'510.0
2017-Sep-12 07:30N 47°01' W 002°12'  
2017-Sep-03 21:56N 47°02' W 002°18'1014.1
2017-Sep-03 21:11N 47°11' W 002°26'0 0.5
2017-Sep-03 20:55N 47°11' W 002°25'0 0.9
2017-Sep-03 20:30N 47°11' W 002°25'4 7.4
2017-Sep-03 20:00N 47°07' W 002°24'713.0
2017-Sep-03 19:27N 47°02' W 002°18'812.4
2017-Sep-03 18:46N 47°10' W 002°22'1 2.0
2017-Sep-03 18:17N 47°09' W 002°23'1 2.0
2017-Sep-03 17:58N 47°10' W 002°23'1 2.5
2017-Sep-03 17:26N 47°11' W 002°23'2 3.3
2017-Sep-03 16:43N 47°09' W 002°25'2 6.5
2017-Sep-03 16:24N 47°09' W 002°22'3 5.8
2017-Sep-03 15:57N 47°07' W 002°24'2 5.2
2017-Sep-03 15:29N 47°09' W 002°23'1 1.8
2017-Sep-03 14:59N 47°08' W 002°23'1 1.1
2017-Sep-03 13:57N 47°09' W 002°24'1 0.4
2017-Sep-03 11:57N 47°08' W 002°24'  
Track history (hours):
 
Tides and Currents Weather Stations Pressure Air Temp Water Temp Dewpoint Dewpoint Depression Visibility Wind Speed Wind Dir Waves Ship Positions

Georges Clemenceau 2

Last reported at 2017-Sep-12 08:36 UTC. Time now 2017-Sep-23 05:56 UTC.
Position N 47°04' W 002°17'.
Warning: this ship's position is 10 days out of date.

Length 18 m.

Type: Pilot. MMSI: 227003710.

Date/timePositionNaut miles runAvg speedWind from/ knotsBaromVisibWave heightAir tempDewpointWater temp
2017-Sep-12 08:36N 47°04' W 002°17'217.1
2017-Sep-12 08:30N 47°06' W 002°17'2 3.1
2017-Sep-12 08:00N 47°06' W 002°14'510.0
2017-Sep-12 07:30N 47°01' W 002°12'  
2017-Sep-03 21:56N 47°02' W 002°18'1014.1
2017-Sep-03 21:11N 47°11' W 002°26'0 0.5
2017-Sep-03 20:55N 47°11' W 002°25'0 0.9
2017-Sep-03 20:30N 47°11' W 002°25'4 7.4
2017-Sep-03 20:00N 47°07' W 002°24'713.0
2017-Sep-03 19:27N 47°02' W 002°18'812.4
2017-Sep-03 18:46N 47°10' W 002°22'1 2.0
2017-Sep-03 18:17N 47°09' W 002°23'1 2.0
2017-Sep-03 17:58N 47°10' W 002°23'1 2.5
2017-Sep-03 17:26N 47°11' W 002°23'2 3.3
2017-Sep-03 16:43N 47°09' W 002°25'2 6.5
2017-Sep-03 16:24N 47°09' W 002°22'3 5.8
2017-Sep-03 15:57N 47°07' W 002°24'2 5.2
2017-Sep-03 15:29N 47°09' W 002°23'1 1.8
2017-Sep-03 14:59N 47°08' W 002°23'1 1.1
2017-Sep-03 13:57N 47°09' W 002°24'1 0.4
2017-Sep-03 11:57N 47°08' W 002°24'  

Dump ship's entire track history